TRA71T EHAM-LEMH
Flight info
| Callsign | TRA71T |
|---|---|
| Flight time | 2h 5m |
| Altitude | 37000 |
| Route | WOODY DCT CMB DCT RESMI DCT DEPOM DCT LARON DCT AMOLO DCT KANIG DCT SARGO |
| Aircraft | B738/M-SDE2E3FGHIRWXY/LB1 |
Departure
| Time | 2026-04-18 03:41 |
|---|---|
| Airport | Amsterdam Airport Schiphol (EHAM) |
Arrival
| Time | 2026-04-18 05:46 |
|---|---|
| Airport | Menorca Airport (LEMH) |
| Time | Latitude | Longitude | Altitude | Speed | Heading |
|---|---|---|---|---|---|
| 2026-04-18 03:15 | 52.31011 | 4.77180 | -12 ft | 0 kts | 183° |
| 2026-04-18 03:35 | 52.31012 | 4.77180 | -2 ft | 4 kts | 183° |
| 2026-04-18 03:36 | 52.31052 | 4.77184 | -2 ft | 6 kts | 183° |
| 2026-04-18 03:36 | 52.31080 | 4.77168 | -2 ft | 0 kts | 91° |
| 2026-04-18 03:37 | 52.31079 | 4.77190 | -2 ft | 11 kts | 91° |
| 2026-04-18 03:37 | 52.31071 | 4.77344 | -2 ft | 14 kts | 95° |
| 2026-04-18 03:38 | 52.31089 | 4.77483 | -2 ft | 13 kts | 28° |
| 2026-04-18 03:38 | 52.31151 | 4.77572 | -2 ft | 13 kts | 78° |
| 2026-04-18 03:38 | 52.31218 | 4.77641 | -2 ft | 12 kts | 5° |
| 2026-04-18 03:38 | 52.31303 | 4.77649 | -2 ft | 12 kts | 3° |
| 2026-04-18 03:39 | 52.31386 | 4.77656 | -2 ft | 12 kts | 0° |
| 2026-04-18 03:39 | 52.31464 | 4.77625 | -2 ft | 12 kts | 330° |
| 2026-04-18 03:39 | 52.31528 | 4.77552 | -2 ft | 11 kts | 343° |
| 2026-04-18 03:39 | 52.31584 | 4.77618 | -2 ft | 11 kts | 77° |
| 2026-04-18 03:40 | 52.31590 | 4.77750 | -2 ft | 12 kts | 85° |
| 2026-04-18 03:40 | 52.31586 | 4.77921 | -1 ft | 26 kts | 115° |
| 2026-04-18 03:40 | 52.31309 | 4.77941 | -2 ft | 81 kts | 184° |
| 2026-04-18 03:40 | 52.30482 | 4.77859 | 1 ft | 154 kts | 185° |
| 2026-04-18 03:41 | 52.29328 | 4.77739 | 606 ft | 177 kts | 183° |
| 2026-04-18 03:41 | 52.28107 | 4.77758 | 1809 ft | 170 kts | 174° |
| 2026-04-18 03:41 | 52.26931 | 4.78281 | 2737 ft | 185 kts | 168° |
| 2026-04-18 03:41 | 52.25588 | 4.78891 | 3097 ft | 217 kts | 168° |
| 2026-04-18 03:42 | 52.24026 | 4.79587 | 3363 ft | 248 kts | 168° |
| 2026-04-18 03:42 | 52.22319 | 4.80351 | 4026 ft | 260 kts | 168° |
| 2026-04-18 03:42 | 52.20532 | 4.80776 | 4872 ft | 260 kts | 186° |
| 2026-04-18 03:42 | 52.18726 | 4.80531 | 5772 ft | 262 kts | 188° |
| 2026-04-18 03:43 | 52.16901 | 4.80236 | 6638 ft | 266 kts | 188° |
| 2026-04-18 03:43 | 52.15074 | 4.79948 | 7463 ft | 269 kts | 188° |
| 2026-04-18 03:43 | 52.13178 | 4.79659 | 8334 ft | 272 kts | 188° |
| 2026-04-18 03:43 | 52.11280 | 4.79378 | 9173 ft | 276 kts | 188° |
| 2026-04-18 03:44 | 52.09382 | 4.79103 | 9992 ft | 280 kts | 188° |
| 2026-04-18 03:44 | 52.07396 | 4.78819 | 10642 ft | 290 kts | 188° |
| 2026-04-18 03:44 | 52.05326 | 4.78522 | 10821 ft | 315 kts | 188° |
| 2026-04-18 03:44 | 52.03084 | 4.78206 | 11252 ft | 329 kts | 188° |
| 2026-04-18 03:45 | 52.00778 | 4.77888 | 11974 ft | 334 kts | 188° |
| 2026-04-18 03:45 | 51.98454 | 4.77568 | 12781 ft | 336 kts | 188° |
| 2026-04-18 03:45 | 51.96113 | 4.77245 | 13590 ft | 339 kts | 188° |
| 2026-04-18 03:45 | 51.93752 | 4.76916 | 14300 ft | 342 kts | 188° |
| 2026-04-18 03:46 | 51.91438 | 4.76090 | 14946 ft | 341 kts | 205° |
| 2026-04-18 03:46 | 51.89296 | 4.74461 | 15688 ft | 341 kts | 208° |
| 2026-04-18 03:46 | 51.87162 | 4.72748 | 16382 ft | 344 kts | 209° |
| 2026-04-18 03:46 | 51.85009 | 4.71015 | 17052 ft | 347 kts | 209° |
| 2026-04-18 03:47 | 51.82834 | 4.69281 | 17741 ft | 350 kts | 208° |
| 2026-04-18 03:47 | 51.80634 | 4.67545 | 18422 ft | 353 kts | 208° |
| 2026-04-18 03:47 | 51.78415 | 4.65808 | 19016 ft | 356 kts | 208° |
| 2026-04-18 03:47 | 51.76179 | 4.64065 | 19637 ft | 358 kts | 208° |
| 2026-04-18 03:48 | 51.73927 | 4.62314 | 20265 ft | 360 kts | 208° |
| 2026-04-18 03:48 | 51.71661 | 4.60555 | 20886 ft | 363 kts | 208° |
| 2026-04-18 03:48 | 51.69379 | 4.58786 | 21478 ft | 365 kts | 208° |
| 2026-04-18 03:48 | 51.67082 | 4.57009 | 22064 ft | 368 kts | 208° |
| 2026-04-18 03:49 | 51.64768 | 4.55217 | 22612 ft | 370 kts | 208° |
| 2026-04-18 03:49 | 51.62440 | 4.53415 | 23156 ft | 373 kts | 208° |
| 2026-04-18 03:49 | 51.60094 | 4.51601 | 23695 ft | 375 kts | 209° |
| 2026-04-18 03:49 | 51.57734 | 4.49778 | 24148 ft | 377 kts | 209° |
| 2026-04-18 03:50 | 51.55362 | 4.47947 | 24593 ft | 379 kts | 208° |
| 2026-04-18 03:50 | 51.52977 | 4.46109 | 25039 ft | 381 kts | 208° |
| 2026-04-18 03:50 | 51.50576 | 4.44261 | 25480 ft | 383 kts | 208° |
| 2026-04-18 03:50 | 51.48164 | 4.42405 | 25899 ft | 386 kts | 208° |
| 2026-04-18 03:51 | 51.45735 | 4.40538 | 26314 ft | 388 kts | 208° |
| 2026-04-18 03:51 | 51.43294 | 4.38665 | 26719 ft | 390 kts | 208° |
| 2026-04-18 03:51 | 51.40838 | 4.36779 | 27126 ft | 392 kts | 209° |
| 2026-04-18 03:51 | 51.38454 | 4.34644 | 27510 ft | 393 kts | 214° |
| 2026-04-18 03:52 | 51.36157 | 4.32259 | 27896 ft | 395 kts | 216° |
| 2026-04-18 03:52 | 51.33883 | 4.29777 | 28280 ft | 396 kts | 217° |
| 2026-04-18 03:52 | 51.31608 | 4.27272 | 28632 ft | 398 kts | 217° |
| 2026-04-18 03:52 | 51.29313 | 4.24765 | 28981 ft | 401 kts | 216° |
| 2026-04-18 03:53 | 51.26999 | 4.22266 | 29353 ft | 403 kts | 216° |
| 2026-04-18 03:53 | 51.24664 | 4.19772 | 29680 ft | 405 kts | 216° |
| 2026-04-18 03:53 | 51.22311 | 4.17276 | 29999 ft | 407 kts | 216° |
| 2026-04-18 03:53 | 51.19943 | 4.14778 | 30315 ft | 409 kts | 216° |
| 2026-04-18 03:54 | 51.17562 | 4.12274 | 30583 ft | 411 kts | 216° |
| 2026-04-18 03:54 | 51.15171 | 4.09767 | 30862 ft | 412 kts | 215° |
| 2026-04-18 03:54 | 51.12815 | 4.07299 | 31238 ft | 410 kts | 215° |
| 2026-04-18 03:54 | 51.10443 | 4.04819 | 31672 ft | 407 kts | 215° |
| 2026-04-18 03:55 | 51.08079 | 4.02350 | 32060 ft | 405 kts | 215° |
| 2026-04-18 03:55 | 51.05727 | 3.99895 | 32394 ft | 405 kts | 215° |
| 2026-04-18 03:55 | 51.03370 | 3.97438 | 32725 ft | 404 kts | 215° |
| 2026-04-18 03:55 | 51.01024 | 3.94995 | 33096 ft | 403 kts | 215° |
| 2026-04-18 03:56 | 50.98688 | 3.92566 | 33464 ft | 401 kts | 215° |
| 2026-04-18 03:56 | 50.96352 | 3.90139 | 33779 ft | 401 kts | 215° |
| 2026-04-18 03:56 | 50.94024 | 3.87724 | 34098 ft | 400 kts | 215° |
| 2026-04-18 03:56 | 50.91697 | 3.85312 | 34391 ft | 399 kts | 214° |
| 2026-04-18 03:57 | 50.87058 | 3.80513 | 34888 ft | 399 kts | 215° |
| 2026-04-18 03:57 | 50.84735 | 3.78113 | 35144 ft | 398 kts | 215° |
| 2026-04-18 03:57 | 50.82416 | 3.75722 | 35401 ft | 397 kts | 215° |
| 2026-04-18 03:58 | 50.80100 | 3.73337 | 35638 ft | 397 kts | 215° |
| 2026-04-18 03:58 | 50.77786 | 3.70956 | 35882 ft | 397 kts | 215° |
| 2026-04-18 03:58 | 50.75477 | 3.68583 | 36132 ft | 396 kts | 215° |
| 2026-04-18 03:58 | 50.73166 | 3.66211 | 36345 ft | 396 kts | 215° |
| 2026-04-18 03:59 | 50.70849 | 3.63836 | 36491 ft | 398 kts | 215° |
| 2026-04-18 03:59 | 50.68528 | 3.61458 | 36680 ft | 398 kts | 215° |
| 2026-04-18 03:59 | 50.66205 | 3.59083 | 36903 ft | 398 kts | 215° |
| 2026-04-18 03:59 | 50.63883 | 3.56712 | 37135 ft | 397 kts | 215° |
| 2026-04-18 04:00 | 50.61560 | 3.54341 | 37154 ft | 399 kts | 215° |
| 2026-04-18 04:00 | 50.56897 | 3.49592 | 37166 ft | 399 kts | 215° |
| 2026-04-18 04:01 | 50.52246 | 3.44868 | 37179 ft | 397 kts | 215° |
| 2026-04-18 04:01 | 50.47613 | 3.40171 | 37175 ft | 396 kts | 215° |
| 2026-04-18 04:02 | 50.43022 | 3.35528 | 37177 ft | 395 kts | 215° |
| 2026-04-18 04:02 | 50.38409 | 3.30874 | 37177 ft | 394 kts | 215° |
| 2026-04-18 04:03 | 50.33796 | 3.26229 | 37174 ft | 395 kts | 214° |
| 2026-04-18 04:03 | 50.29140 | 3.21553 | 37172 ft | 395 kts | 214° |
| 2026-04-18 04:04 | 50.24513 | 3.16916 | 37181 ft | 400 kts | 214° |
| 2026-04-18 04:04 | 50.19474 | 3.13086 | 37185 ft | 407 kts | 204° |
| 2026-04-18 04:05 | 50.14152 | 3.09959 | 37176 ft | 410 kts | 204° |
| 2026-04-18 04:05 | 50.08814 | 3.06822 | 37160 ft | 408 kts | 204° |
| 2026-04-18 04:06 | 50.03562 | 3.03715 | 37166 ft | 400 kts | 204° |
| 2026-04-18 04:06 | 49.98367 | 3.00631 | 37170 ft | 399 kts | 204° |
| 2026-04-18 04:07 | 49.93185 | 2.97558 | 37184 ft | 399 kts | 204° |
| 2026-04-18 04:07 | 49.88000 | 2.94489 | 37180 ft | 399 kts | 204° |
| 2026-04-18 04:08 | 49.82803 | 2.91421 | 37175 ft | 400 kts | 204° |
| 2026-04-18 04:08 | 49.77581 | 2.88346 | 37180 ft | 402 kts | 204° |
| 2026-04-18 04:09 | 49.72342 | 2.85268 | 37187 ft | 404 kts | 204° |
| 2026-04-18 04:09 | 49.67076 | 2.82182 | 37179 ft | 406 kts | 204° |
| 2026-04-18 04:10 | 49.61788 | 2.79090 | 37180 ft | 407 kts | 204° |
| 2026-04-18 04:10 | 49.56475 | 2.75991 | 37183 ft | 409 kts | 204° |
| 2026-04-18 04:11 | 49.51148 | 2.72891 | 37176 ft | 410 kts | 204° |
| 2026-04-18 04:11 | 49.45811 | 2.69792 | 37179 ft | 410 kts | 204° |
| 2026-04-18 04:12 | 49.40466 | 2.66696 | 37183 ft | 411 kts | 204° |
| 2026-04-18 04:12 | 49.35118 | 2.63606 | 37180 ft | 410 kts | 204° |
| 2026-04-18 04:13 | 49.30677 | 2.61045 | 37184 ft | 410 kts | 204° |
| 2026-04-18 04:13 | 49.25077 | 2.57822 | 37185 ft | 410 kts | 204° |
| 2026-04-18 04:14 | 49.19739 | 2.54758 | 37182 ft | 409 kts | 204° |
| 2026-04-18 04:14 | 49.14441 | 2.51723 | 37181 ft | 409 kts | 204° |
| 2026-04-18 04:15 | 49.09112 | 2.48678 | 37190 ft | 409 kts | 204° |
| 2026-04-18 04:15 | 49.03785 | 2.45641 | 37181 ft | 409 kts | 204° |
| 2026-04-18 04:16 | 48.98461 | 2.42612 | 37207 ft | 409 kts | 204° |
| 2026-04-18 04:16 | 48.93132 | 2.39587 | 37209 ft | 409 kts | 204° |
| 2026-04-18 04:17 | 48.87800 | 2.36568 | 37210 ft | 409 kts | 204° |
| 2026-04-18 04:17 | 48.82463 | 2.33552 | 37179 ft | 410 kts | 204° |
| 2026-04-18 04:18 | 48.77118 | 2.30539 | 37186 ft | 410 kts | 204° |
| 2026-04-18 04:18 | 48.71760 | 2.27525 | 37182 ft | 411 kts | 204° |
| 2026-04-18 04:19 | 48.66385 | 2.24508 | 37185 ft | 412 kts | 204° |
| 2026-04-18 04:19 | 48.60997 | 2.21490 | 37182 ft | 413 kts | 204° |
| 2026-04-18 04:20 | 48.55421 | 2.19222 | 37180 ft | 420 kts | 191° |
| 2026-04-18 04:20 | 48.49533 | 2.18993 | 37179 ft | 425 kts | 184° |
| 2026-04-18 04:21 | 48.44618 | 2.19005 | 37190 ft | 425 kts | 184° |
| 2026-04-18 04:21 | 48.38695 | 2.18994 | 37178 ft | 426 kts | 185° |
| 2026-04-18 04:22 | 48.32767 | 2.18947 | 37189 ft | 426 kts | 185° |
| 2026-04-18 04:22 | 48.26829 | 2.18886 | 37175 ft | 427 kts | 185° |
| 2026-04-18 04:23 | 48.20887 | 2.18822 | 37179 ft | 427 kts | 185° |
| 2026-04-18 04:23 | 48.14940 | 2.18759 | 37177 ft | 427 kts | 185° |
| 2026-04-18 04:24 | 48.08993 | 2.18696 | 37188 ft | 427 kts | 185° |
| 2026-04-18 04:24 | 48.03043 | 2.18634 | 37181 ft | 428 kts | 185° |
| 2026-04-18 04:25 | 47.97091 | 2.18572 | 37187 ft | 428 kts | 185° |
| 2026-04-18 04:25 | 47.91132 | 2.18510 | 37179 ft | 428 kts | 185° |
| 2026-04-18 04:26 | 47.85173 | 2.18448 | 37186 ft | 428 kts | 184° |
| 2026-04-18 04:26 | 47.79211 | 2.18386 | 37180 ft | 429 kts | 184° |
| 2026-04-18 04:27 | 47.73248 | 2.18325 | 37183 ft | 429 kts | 184° |
| 2026-04-18 04:27 | 47.67279 | 2.18263 | 37179 ft | 429 kts | 184° |
| 2026-04-18 04:28 | 47.61309 | 2.18202 | 37179 ft | 429 kts | 184° |
| 2026-04-18 04:28 | 47.55332 | 2.18141 | 37171 ft | 430 kts | 184° |
| 2026-04-18 04:29 | 47.49348 | 2.18079 | 37173 ft | 430 kts | 184° |
| 2026-04-18 04:29 | 47.43397 | 2.18018 | 37173 ft | 431 kts | 184° |
| 2026-04-18 04:30 | 47.37362 | 2.17957 | 37174 ft | 431 kts | 184° |
| 2026-04-18 04:30 | 47.31402 | 2.17897 | 37176 ft | 432 kts | 184° |
| 2026-04-18 04:31 | 47.25383 | 2.17965 | 37175 ft | 433 kts | 183° |
| 2026-04-18 04:31 | 47.19359 | 2.18098 | 37171 ft | 433 kts | 183° |
| 2026-04-18 04:32 | 47.13325 | 2.18223 | 37176 ft | 434 kts | 183° |
| 2026-04-18 04:32 | 47.07282 | 2.18334 | 37174 ft | 434 kts | 183° |
| 2026-04-18 04:33 | 47.01238 | 2.18442 | 37180 ft | 435 kts | 183° |
| 2026-04-18 04:33 | 46.95187 | 2.18547 | 37179 ft | 435 kts | 183° |
| 2026-04-18 04:34 | 46.89137 | 2.18653 | 37179 ft | 435 kts | 183° |
| 2026-04-18 04:34 | 46.83078 | 2.18759 | 37180 ft | 435 kts | 183° |
| 2026-04-18 04:35 | 46.77021 | 2.18865 | 37182 ft | 435 kts | 183° |
| 2026-04-18 04:35 | 46.70961 | 2.18970 | 37184 ft | 436 kts | 183° |
| 2026-04-18 04:36 | 46.64896 | 2.19076 | 37192 ft | 436 kts | 183° |
| 2026-04-18 04:36 | 46.58834 | 2.19181 | 37186 ft | 436 kts | 183° |
| 2026-04-18 04:37 | 46.52765 | 2.19286 | 37192 ft | 436 kts | 183° |
| 2026-04-18 04:37 | 46.46697 | 2.19390 | 37195 ft | 436 kts | 183° |
| 2026-04-18 04:38 | 46.40625 | 2.19495 | 37197 ft | 436 kts | 183° |
| 2026-04-18 04:38 | 46.34554 | 2.19599 | 37199 ft | 436 kts | 183° |
| 2026-04-18 04:39 | 46.28482 | 2.19703 | 37201 ft | 437 kts | 183° |
| 2026-04-18 04:39 | 46.22402 | 2.19831 | 37198 ft | 438 kts | 181° |
| 2026-04-18 04:40 | 46.16324 | 2.20682 | 37209 ft | 440 kts | 177° |
| 2026-04-18 04:40 | 46.10248 | 2.21782 | 37204 ft | 440 kts | 177° |
| 2026-04-18 04:41 | 46.04173 | 2.22853 | 37207 ft | 440 kts | 177° |
| 2026-04-18 04:41 | 45.98093 | 2.23874 | 37208 ft | 440 kts | 177° |
| 2026-04-18 04:42 | 45.92007 | 2.24874 | 37213 ft | 440 kts | 177° |
| 2026-04-18 04:42 | 45.85918 | 2.25868 | 37210 ft | 441 kts | 178° |
| 2026-04-18 04:43 | 45.79819 | 2.26862 | 37210 ft | 441 kts | 177° |
| 2026-04-18 04:43 | 45.73725 | 2.27855 | 37217 ft | 441 kts | 178° |
| 2026-04-18 04:44 | 45.67615 | 2.28848 | 37216 ft | 442 kts | 178° |
| 2026-04-18 04:44 | 45.61499 | 2.29839 | 37209 ft | 443 kts | 178° |
| 2026-04-18 04:45 | 45.55381 | 2.30830 | 37225 ft | 443 kts | 178° |
| 2026-04-18 04:45 | 45.49255 | 2.31819 | 37217 ft | 443 kts | 178° |
| 2026-04-18 04:46 | 45.43163 | 2.32800 | 37221 ft | 444 kts | 178° |
| 2026-04-18 04:46 | 45.36986 | 2.33793 | 37226 ft | 444 kts | 177° |
| 2026-04-18 04:47 | 45.30889 | 2.34772 | 37231 ft | 444 kts | 178° |
| 2026-04-18 04:47 | 45.24745 | 2.35755 | 37230 ft | 444 kts | 177° |
| 2026-04-18 04:48 | 45.18598 | 2.36737 | 37228 ft | 445 kts | 178° |
| 2026-04-18 04:48 | 45.12438 | 2.37718 | 37206 ft | 445 kts | 177° |
| 2026-04-18 04:49 | 45.06280 | 2.38697 | 37221 ft | 446 kts | 178° |
| 2026-04-18 04:49 | 45.00107 | 2.39677 | 37211 ft | 446 kts | 178° |
| 2026-04-18 04:50 | 44.93930 | 2.40655 | 37214 ft | 447 kts | 178° |
| 2026-04-18 04:50 | 44.87747 | 2.41632 | 37212 ft | 447 kts | 178° |
| 2026-04-18 04:51 | 44.81560 | 2.42607 | 37205 ft | 448 kts | 178° |
| 2026-04-18 04:51 | 44.75369 | 2.43581 | 37210 ft | 448 kts | 178° |
| 2026-04-18 04:52 | 44.69246 | 2.44543 | 37222 ft | 448 kts | 178° |
| 2026-04-18 04:52 | 44.63049 | 2.45514 | 37215 ft | 448 kts | 178° |
| 2026-04-18 04:53 | 44.56856 | 2.46481 | 37208 ft | 448 kts | 178° |
| 2026-04-18 04:53 | 44.50648 | 2.47449 | 37208 ft | 449 kts | 178° |
| 2026-04-18 04:54 | 44.44437 | 2.48416 | 37216 ft | 449 kts | 178° |
| 2026-04-18 04:54 | 44.38221 | 2.49381 | 37208 ft | 450 kts | 178° |
| 2026-04-18 04:55 | 44.31990 | 2.50347 | 37210 ft | 451 kts | 178° |
| 2026-04-18 04:55 | 44.25749 | 2.51312 | 37207 ft | 452 kts | 178° |
| 2026-04-18 04:56 | 44.16367 | 2.52758 | 37210 ft | 453 kts | 178° |
| 2026-04-18 04:56 | 44.10098 | 2.53723 | 37200 ft | 453 kts | 178° |
| 2026-04-18 04:57 | 44.03825 | 2.54686 | 37190 ft | 454 kts | 178° |
| 2026-04-18 04:57 | 43.97543 | 2.55649 | 37192 ft | 454 kts | 178° |
| 2026-04-18 04:58 | 43.91255 | 2.56610 | 37189 ft | 455 kts | 178° |
| 2026-04-18 04:58 | 43.84961 | 2.57570 | 37182 ft | 455 kts | 177° |
| 2026-04-18 04:59 | 43.78695 | 2.59017 | 37196 ft | 458 kts | 171° |
| 2026-04-18 04:59 | 43.72469 | 2.60969 | 37180 ft | 459 kts | 170° |
| 2026-04-18 05:00 | 43.66237 | 2.62936 | 37187 ft | 459 kts | 171° |
| 2026-04-18 05:00 | 43.59999 | 2.64861 | 37178 ft | 459 kts | 171° |
| 2026-04-18 05:01 | 43.53800 | 2.66747 | 37169 ft | 460 kts | 171° |
| 2026-04-18 05:01 | 43.47552 | 2.68639 | 37162 ft | 460 kts | 171° |
| 2026-04-18 05:02 | 43.41298 | 2.70530 | 37152 ft | 460 kts | 171° |
| 2026-04-18 05:02 | 43.35040 | 2.72419 | 37145 ft | 461 kts | 170° |
| 2026-04-18 05:03 | 43.28775 | 2.74307 | 37139 ft | 461 kts | 170° |
| 2026-04-18 05:03 | 43.22499 | 2.76194 | 37139 ft | 462 kts | 170° |
| 2026-04-18 05:04 | 43.16213 | 2.78081 | 37139 ft | 463 kts | 170° |
| 2026-04-18 05:04 | 43.09917 | 2.79966 | 37143 ft | 464 kts | 170° |
| 2026-04-18 05:05 | 43.03613 | 2.81850 | 37145 ft | 464 kts | 170° |
| 2026-04-18 05:05 | 42.98369 | 2.83414 | 37151 ft | 464 kts | 170° |
| 2026-04-18 05:06 | 42.92063 | 2.85291 | 37155 ft | 464 kts | 169° |
| 2026-04-18 05:06 | 42.85751 | 2.87166 | 37147 ft | 464 kts | 169° |
| 2026-04-18 05:07 | 42.79453 | 2.89033 | 37153 ft | 463 kts | 169° |
| 2026-04-18 05:07 | 42.73164 | 2.90893 | 37161 ft | 462 kts | 169° |
| 2026-04-18 05:08 | 42.66886 | 2.92746 | 37157 ft | 461 kts | 169° |
| 2026-04-18 05:08 | 42.60616 | 2.94594 | 37155 ft | 461 kts | 169° |
| 2026-04-18 05:09 | 42.54351 | 2.96436 | 37152 ft | 460 kts | 169° |
| 2026-04-18 05:09 | 42.48092 | 2.98308 | 37152 ft | 461 kts | 166° |
| 2026-04-18 05:10 | 42.42054 | 3.01254 | 37140 ft | 462 kts | 159° |
| 2026-04-18 05:10 | 42.36085 | 3.04477 | 37145 ft | 462 kts | 159° |
| 2026-04-18 05:11 | 42.30108 | 3.07674 | 37136 ft | 462 kts | 159° |
| 2026-04-18 05:11 | 42.24111 | 3.10829 | 37141 ft | 463 kts | 159° |
| 2026-04-18 05:12 | 42.18102 | 3.13965 | 37129 ft | 463 kts | 159° |
| 2026-04-18 05:12 | 42.12090 | 3.17094 | 37131 ft | 463 kts | 159° |
| 2026-04-18 05:13 | 42.06085 | 3.20213 | 37121 ft | 461 kts | 159° |
| 2026-04-18 05:13 | 42.00147 | 3.23294 | 37116 ft | 454 kts | 159° |
| 2026-04-18 05:14 | 41.94253 | 3.26345 | 36773 ft | 454 kts | 159° |
| 2026-04-18 05:14 | 41.91331 | 3.27856 | 36462 ft | 447 kts | 159° |
| 2026-04-18 05:14 | 41.88477 | 3.29330 | 36089 ft | 443 kts | 159° |
| 2026-04-18 05:15 | 41.85616 | 3.30806 | 35718 ft | 439 kts | 159° |
| 2026-04-18 05:15 | 41.82770 | 3.32273 | 35343 ft | 436 kts | 159° |
| 2026-04-18 05:15 | 41.79943 | 3.33728 | 34960 ft | 433 kts | 159° |
| 2026-04-18 05:15 | 41.77140 | 3.35171 | 34586 ft | 431 kts | 159° |
| 2026-04-18 05:16 | 41.74349 | 3.36605 | 34213 ft | 428 kts | 159° |
| 2026-04-18 05:16 | 41.71578 | 3.38028 | 33797 ft | 426 kts | 159° |
| 2026-04-18 05:16 | 41.68823 | 3.39441 | 33393 ft | 423 kts | 160° |
| 2026-04-18 05:16 | 41.66085 | 3.40844 | 33003 ft | 420 kts | 159° |
| 2026-04-18 05:17 | 41.63371 | 3.42234 | 32651 ft | 416 kts | 159° |
| 2026-04-18 05:17 | 41.60674 | 3.43614 | 32279 ft | 413 kts | 159° |
| 2026-04-18 05:17 | 41.57996 | 3.44983 | 31916 ft | 411 kts | 160° |
| 2026-04-18 05:17 | 41.55337 | 3.46341 | 31563 ft | 408 kts | 160° |
| 2026-04-18 05:18 | 41.52695 | 3.47689 | 31209 ft | 405 kts | 160° |
| 2026-04-18 05:18 | 41.50071 | 3.49026 | 30858 ft | 403 kts | 160° |
| 2026-04-18 05:18 | 41.47463 | 3.50355 | 30515 ft | 400 kts | 160° |
| 2026-04-18 05:18 | 41.44866 | 3.51677 | 30163 ft | 398 kts | 160° |
| 2026-04-18 05:19 | 41.42286 | 3.52989 | 29758 ft | 396 kts | 160° |
| 2026-04-18 05:19 | 41.39724 | 3.54290 | 29377 ft | 392 kts | 160° |
| 2026-04-18 05:19 | 41.37185 | 3.55579 | 29009 ft | 389 kts | 160° |
| 2026-04-18 05:19 | 41.34666 | 3.56857 | 28651 ft | 385 kts | 159° |
| 2026-04-18 05:20 | 41.32168 | 3.58122 | 28286 ft | 383 kts | 159° |
| 2026-04-18 05:20 | 41.29692 | 3.59376 | 27934 ft | 380 kts | 159° |
| 2026-04-18 05:20 | 41.27230 | 3.60622 | 27573 ft | 377 kts | 159° |
| 2026-04-18 05:20 | 41.24783 | 3.61859 | 27222 ft | 375 kts | 159° |
| 2026-04-18 05:21 | 41.22355 | 3.63085 | 26875 ft | 372 kts | 159° |
| 2026-04-18 05:21 | 41.19943 | 3.64303 | 26527 ft | 370 kts | 159° |
| 2026-04-18 05:21 | 41.17545 | 3.65512 | 26188 ft | 368 kts | 159° |
| 2026-04-18 05:21 | 41.15158 | 3.66715 | 25847 ft | 366 kts | 159° |
| 2026-04-18 05:22 | 41.12784 | 3.67910 | 25508 ft | 364 kts | 159° |
| 2026-04-18 05:22 | 41.10423 | 3.69098 | 25172 ft | 362 kts | 159° |
| 2026-04-18 05:22 | 41.08070 | 3.70281 | 24837 ft | 361 kts | 159° |
| 2026-04-18 05:22 | 41.05727 | 3.71459 | 24498 ft | 360 kts | 159° |
| 2026-04-18 05:23 | 41.03393 | 3.72630 | 24167 ft | 358 kts | 159° |
| 2026-04-18 05:23 | 41.01061 | 3.73800 | 23816 ft | 358 kts | 159° |
| 2026-04-18 05:23 | 40.98735 | 3.74966 | 23435 ft | 357 kts | 159° |
| 2026-04-18 05:23 | 40.96448 | 3.76112 | 23068 ft | 355 kts | 159° |
| 2026-04-18 05:24 | 40.94141 | 3.77266 | 22715 ft | 353 kts | 159° |
| 2026-04-18 05:24 | 40.91852 | 3.78412 | 22372 ft | 351 kts | 159° |
| 2026-04-18 05:24 | 40.89543 | 3.79565 | 22029 ft | 349 kts | 159° |
| 2026-04-18 05:24 | 40.87308 | 3.80681 | 21702 ft | 347 kts | 159° |
| 2026-04-18 05:25 | 40.85029 | 3.81819 | 21366 ft | 345 kts | 159° |
| 2026-04-18 05:25 | 40.82817 | 3.82922 | 21038 ft | 344 kts | 159° |
| 2026-04-18 05:25 | 40.80583 | 3.84035 | 20711 ft | 342 kts | 159° |
| 2026-04-18 05:25 | 40.78362 | 3.85141 | 20386 ft | 341 kts | 159° |
| 2026-04-18 05:26 | 40.76149 | 3.86242 | 20060 ft | 340 kts | 159° |
| 2026-04-18 05:26 | 40.73940 | 3.87341 | 19742 ft | 339 kts | 158° |
| 2026-04-18 05:26 | 40.71739 | 3.88435 | 19412 ft | 338 kts | 158° |
| 2026-04-18 05:26 | 40.69541 | 3.89526 | 19093 ft | 337 kts | 158° |
| 2026-04-18 05:27 | 40.67349 | 3.90614 | 18761 ft | 337 kts | 158° |
| 2026-04-18 05:27 | 40.65158 | 3.91701 | 18434 ft | 336 kts | 158° |
| 2026-04-18 05:27 | 40.62967 | 3.92787 | 18054 ft | 336 kts | 158° |
| 2026-04-18 05:27 | 40.60783 | 3.93869 | 17713 ft | 334 kts | 158° |
| 2026-04-18 05:28 | 40.58612 | 3.94944 | 17381 ft | 333 kts | 158° |
| 2026-04-18 05:28 | 40.56448 | 3.96014 | 17061 ft | 331 kts | 158° |
| 2026-04-18 05:28 | 40.54298 | 3.97077 | 16740 ft | 329 kts | 158° |
| 2026-04-18 05:28 | 40.52160 | 3.98132 | 16428 ft | 328 kts | 158° |
| 2026-04-18 05:29 | 40.50030 | 3.99178 | 16118 ft | 326 kts | 159° |
| 2026-04-18 05:29 | 40.47869 | 4.00071 | 15846 ft | 325 kts | 163° |
| 2026-04-18 05:29 | 40.45682 | 4.00846 | 15572 ft | 326 kts | 164° |
| 2026-04-18 05:29 | 40.43483 | 4.01595 | 15294 ft | 327 kts | 165° |
| 2026-04-18 05:30 | 40.41276 | 4.02348 | 15018 ft | 327 kts | 165° |
| 2026-04-18 05:30 | 40.39076 | 4.03106 | 14735 ft | 326 kts | 164° |
| 2026-04-18 05:30 | 40.36886 | 4.03869 | 14459 ft | 325 kts | 164° |
| 2026-04-18 05:30 | 40.34700 | 4.04635 | 14179 ft | 324 kts | 164° |
| 2026-04-18 05:31 | 40.32525 | 4.05401 | 13905 ft | 323 kts | 164° |
| 2026-04-18 05:31 | 40.30359 | 4.06165 | 13587 ft | 322 kts | 164° |
| 2026-04-18 05:31 | 40.28203 | 4.06927 | 13298 ft | 320 kts | 164° |
| 2026-04-18 05:31 | 40.26062 | 4.07683 | 13018 ft | 317 kts | 164° |
| 2026-04-18 05:32 | 40.23940 | 4.08432 | 12744 ft | 315 kts | 164° |
| 2026-04-18 05:32 | 40.21835 | 4.09175 | 12475 ft | 312 kts | 164° |
| 2026-04-18 05:32 | 40.19748 | 4.09911 | 12210 ft | 310 kts | 164° |
| 2026-04-18 05:32 | 40.17672 | 4.10643 | 11943 ft | 307 kts | 164° |
| 2026-04-18 05:33 | 40.15614 | 4.11368 | 11682 ft | 305 kts | 164° |
| 2026-04-18 05:33 | 40.13572 | 4.12087 | 11427 ft | 303 kts | 164° |
| 2026-04-18 05:33 | 40.11542 | 4.12800 | 11172 ft | 301 kts | 164° |
| 2026-04-18 05:33 | 40.09504 | 4.13401 | 10897 ft | 300 kts | 177° |
| 2026-04-18 05:34 | 40.07474 | 4.12946 | 10650 ft | 296 kts | 205° |
| 2026-04-18 05:34 | 40.05759 | 4.11514 | 10426 ft | 292 kts | 221° |
| 2026-04-18 05:34 | 40.04200 | 4.09807 | 10180 ft | 294 kts | 222° |
| 2026-04-18 05:34 | 40.02645 | 4.08063 | 9902 ft | 294 kts | 223° |
| 2026-04-18 05:35 | 40.01097 | 4.06329 | 9631 ft | 292 kts | 223° |
| 2026-04-18 05:35 | 39.99556 | 4.04613 | 9364 ft | 291 kts | 222° |
| 2026-04-18 05:35 | 39.98017 | 4.02910 | 9113 ft | 289 kts | 222° |
| 2026-04-18 05:35 | 39.96483 | 4.01220 | 8860 ft | 287 kts | 222° |
| 2026-04-18 05:36 | 39.94959 | 3.99545 | 8600 ft | 286 kts | 222° |
| 2026-04-18 05:36 | 39.93445 | 3.97885 | 8396 ft | 284 kts | 221° |
| 2026-04-18 05:36 | 39.91937 | 3.96233 | 8112 ft | 282 kts | 221° |
| 2026-04-18 05:36 | 39.90443 | 3.94601 | 7879 ft | 279 kts | 221° |
| 2026-04-18 05:37 | 39.88904 | 3.93093 | 7649 ft | 277 kts | 205° |
| 2026-04-18 05:37 | 39.87053 | 3.92516 | 7484 ft | 277 kts | 179° |
| 2026-04-18 05:37 | 39.85142 | 3.92883 | 7281 ft | 280 kts | 165° |
| 2026-04-18 05:37 | 39.83250 | 3.93558 | 7040 ft | 283 kts | 164° |
| 2026-04-18 05:38 | 39.81341 | 3.94178 | 6788 ft | 282 kts | 165° |
| 2026-04-18 05:38 | 39.79445 | 3.94876 | 6445 ft | 285 kts | 161° |
| 2026-04-18 05:38 | 39.77587 | 3.95749 | 6148 ft | 283 kts | 156° |
| 2026-04-18 05:38 | 39.75818 | 3.96845 | 5888 ft | 280 kts | 150° |
| 2026-04-18 05:39 | 39.74170 | 3.98158 | 5629 ft | 276 kts | 144° |
| 2026-04-18 05:39 | 39.72645 | 3.99653 | 5388 ft | 273 kts | 138° |
| 2026-04-18 05:39 | 39.71246 | 4.01293 | 5150 ft | 269 kts | 133° |
| 2026-04-18 05:39 | 39.69973 | 4.03055 | 4909 ft | 266 kts | 129° |
| 2026-04-18 05:40 | 39.68830 | 4.04925 | 4677 ft | 263 kts | 124° |
| 2026-04-18 05:40 | 39.67830 | 4.06869 | 4452 ft | 261 kts | 119° |
| 2026-04-18 05:40 | 39.66944 | 4.08948 | 4224 ft | 259 kts | 114° |
| 2026-04-18 05:40 | 39.66220 | 4.11038 | 3995 ft | 256 kts | 110° |
| 2026-04-18 05:41 | 39.65628 | 4.13201 | 3785 ft | 253 kts | 105° |
| 2026-04-18 05:41 | 39.65344 | 4.15441 | 3531 ft | 247 kts | 81° |
| 2026-04-18 05:41 | 39.65979 | 4.17390 | 3327 ft | 237 kts | 44° |
| 2026-04-18 05:41 | 39.67366 | 4.18368 | 3139 ft | 226 kts | 6° |
| 2026-04-18 05:42 | 39.68907 | 4.18435 | 3067 ft | 212 kts | 1° |
| 2026-04-18 05:42 | 39.70309 | 4.18593 | 3007 ft | 197 kts | 6° |
| 2026-04-18 05:42 | 39.71616 | 4.18843 | 2921 ft | 184 kts | 7° |
| 2026-04-18 05:42 | 39.72859 | 4.19100 | 2713 ft | 179 kts | 7° |
| 2026-04-18 05:43 | 39.74074 | 4.19351 | 2481 ft | 175 kts | 7° |
| 2026-04-18 05:43 | 39.75260 | 4.19596 | 2257 ft | 171 kts | 7° |
| 2026-04-18 05:43 | 39.76424 | 4.19837 | 2030 ft | 165 kts | 7° |
| 2026-04-18 05:43 | 39.77519 | 4.20063 | 1818 ft | 156 kts | 7° |
| 2026-04-18 05:44 | 39.78588 | 4.20283 | 1620 ft | 156 kts | 7° |
| 2026-04-18 05:44 | 39.79674 | 4.20507 | 1412 ft | 160 kts | 7° |
| 2026-04-18 05:44 | 39.80774 | 4.20734 | 1190 ft | 160 kts | 7° |
| 2026-04-18 05:44 | 39.81872 | 4.20961 | 970 ft | 160 kts | 8° |
| 2026-04-18 05:45 | 39.82934 | 4.21182 | 853 ft | 149 kts | 8° |
| 2026-04-18 05:45 | 39.83943 | 4.21396 | 584 ft | 146 kts | 8° |
| 2026-04-18 05:45 | 39.84917 | 4.21590 | 372 ft | 142 kts | 7° |
| 2026-04-18 05:45 | 39.85890 | 4.21794 | 301 ft | 138 kts | 9° |
| 2026-04-18 05:46 | 39.86580 | 4.21933 | 303 ft | 59 kts | 9° |
| 2026-04-18 05:46 | 39.86827 | 4.22054 | 301 ft | 29 kts | 35° |
| 2026-04-18 05:46 | 39.86925 | 4.22214 | 299 ft | 11 kts | 90° |
| 2026-04-18 05:46 | 39.86909 | 4.22368 | 296 ft | 24 kts | 122° |
| 2026-04-18 05:47 | 39.86746 | 4.22376 | 290 ft | 25 kts | 191° |
| 2026-04-18 05:47 | 39.86600 | 4.22355 | 291 ft | 11 kts | 161° |
| 2026-04-18 05:47 | 39.86577 | 4.22418 | 286 ft | 6 kts | 100° |
| 2026-04-18 05:47 | 39.86576 | 4.22427 | 285 ft | 0 kts | 99° |